createdAt,value
2018-01-25T00:01:09.996Z,58.10
2018-01-25T00:03:37.775Z,54.20
2018-01-25T00:06:05.436Z,60.37
2018-01-25T00:08:33.110Z,53.37
2018-01-25T00:11:00.786Z,62.23
2018-01-25T00:13:28.441Z,57.40
2018-01-25T00:15:56.099Z,58.63
2018-01-25T00:18:23.761Z,58.93
2018-01-25T00:20:51.435Z,61.13
2018-01-25T00:23:19.892Z,61.60
2018-01-25T00:25:47.581Z,58.90
2018-01-25T00:28:16.021Z,54.37
2018-01-25T00:30:43.681Z,57.03
2018-01-25T00:33:11.309Z,59.33
2018-01-25T00:35:38.938Z,59.80
2018-01-25T00:38:07.342Z,60.00
2018-01-25T00:40:34.971Z,57.23
2018-01-25T00:43:02.600Z,55.67
2018-01-25T00:45:30.238Z,56.10
2018-01-25T00:47:57.865Z,55.70
2018-01-25T00:50:26.317Z,49.03
2018-01-25T00:52:53.974Z,50.87
2018-01-25T00:55:21.611Z,55.53
2018-01-25T00:57:49.250Z,54.17
2018-01-25T01:00:16.909Z,55.57
2018-01-25T01:02:44.565Z,54.57
2018-01-25T01:05:12.217Z,52.40
2018-01-25T01:07:39.887Z,50.63
2018-01-25T01:10:07.593Z,47.67
2018-01-25T01:12:35.230Z,54.53
2018-01-25T01:15:02.883Z,50.57
2018-01-25T01:17:30.532Z,55.57
2018-01-25T01:19:58.163Z,54.37
2018-01-25T01:22:26.562Z,50.07
2018-01-25T01:24:54.198Z,53.17
2018-01-25T01:27:22.622Z,54.13
2018-01-25T01:29:50.263Z,58.07
2018-01-25T01:32:17.949Z,57.23
2018-01-25T01:34:45.575Z,54.37
2018-01-25T01:37:13.970Z,59.10
2018-01-25T01:39:42.552Z,54.63
2018-01-25T01:42:10.178Z,57.23
2018-01-25T01:44:38.918Z,54.67
2018-01-25T01:47:06.565Z,59.47
2018-01-25T01:49:34.198Z,57.33
2018-01-25T01:52:02.602Z,55.17
2018-01-25T01:54:30.225Z,55.47
2018-01-25T01:56:58.627Z,56.67
2018-01-25T01:59:26.267Z,58.40
2018-01-25T02:01:54.690Z,57.00
2018-01-25T02:04:22.339Z,58.00
2018-01-25T02:06:49.971Z,59.47
2018-01-25T02:09:18.389Z,57.93
2018-01-25T02:11:46.019Z,60.70
2018-01-25T02:14:13.666Z,58.23
2018-01-25T02:16:42.063Z,50.17
2018-01-25T02:19:09.690Z,56.87
2018-01-25T02:21:38.093Z,63.07
2018-01-25T02:24:05.718Z,63.00
2018-01-25T02:26:33.402Z,57.97
2018-01-25T02:29:01.850Z,61.37
2018-01-25T02:31:29.526Z,59.30
2018-01-25T02:33:57.230Z,65.00
2018-01-25T02:36:24.885Z,55.73
2018-01-25T02:38:52.520Z,60.43
2018-01-25T02:41:20.930Z,62.23
2018-01-25T02:43:48.590Z,60.53
2018-01-25T02:46:16.260Z,62.23
2018-01-25T02:48:44.006Z,62.10
2018-01-25T02:51:11.639Z,71.30
2018-01-25T02:53:40.039Z,64.97
2018-01-25T02:56:07.701Z,62.37
2018-01-25T02:58:35.345Z,57.00
2018-01-25T03:01:03.734Z,61.77
2018-01-25T03:03:31.384Z,60.17
2018-01-25T03:05:59.058Z,56.83
2018-01-25T03:08:26.726Z,67.03
2018-01-25T03:10:54.399Z,62.27
2018-01-25T03:13:22.046Z,62.60
2018-01-25T03:15:49.681Z,57.30
2018-01-25T03:18:18.086Z,55.27
2018-01-25T03:20:45.749Z,58.90
2018-01-25T03:23:13.390Z,60.93
2018-01-25T03:25:41.016Z,53.63
2018-01-25T03:28:08.656Z,61.30
2018-01-25T03:30:36.305Z,60.17
2018-01-25T03:33:04.747Z,58.30
2018-01-25T03:35:32.383Z,59.50
2018-01-25T03:38:00.066Z,59.00
2018-01-25T03:40:28.525Z,62.53
2018-01-25T03:42:56.934Z,57.90
2018-01-25T03:45:26.268Z,56.77
2018-01-25T03:47:53.949Z,57.20
2018-01-25T03:50:21.615Z,56.33
2018-01-25T03:52:49.265Z,63.60
2018-01-25T03:55:16.910Z,61.93
2018-01-25T03:57:44.559Z,62.10
2018-01-25T04:00:12.204Z,61.13
2018-01-25T04:02:39.830Z,63.13
2018-01-25T04:05:08.221Z,64.97
2018-01-25T04:07:35.867Z,63.40
2018-01-25T04:10:04.366Z,65.70
2018-01-25T04:12:32.822Z,64.70
2018-01-25T04:15:01.223Z,64.43
2018-01-25T04:17:28.874Z,68.37
2018-01-25T04:19:57.270Z,63.80
2018-01-25T04:22:24.925Z,58.40
2018-01-25T04:24:52.582Z,61.17
2018-01-25T04:27:20.215Z,66.03
2018-01-25T04:29:47.847Z,63.50
2018-01-25T04:32:15.478Z,58.70
2018-01-25T04:34:43.106Z,65.40
2018-01-25T04:37:11.505Z,66.37
2018-01-25T04:39:39.197Z,73.20
2018-01-25T04:42:06.850Z,68.10
2018-01-25T04:44:34.486Z,71.90
2018-01-25T04:47:02.116Z,70.10
2018-01-25T04:49:29.760Z,65.00
2018-01-25T04:51:57.416Z,63.60
2018-01-25T04:54:25.055Z,61.93
2018-01-25T04:56:52.705Z,68.80
2018-01-25T04:59:20.343Z,58.00
2018-01-25T05:01:47.982Z,62.97
2018-01-25T05:04:16.378Z,61.27
2018-01-25T05:06:44.015Z,58.10
2018-01-25T05:09:11.686Z,65.73
2018-01-25T05:11:40.088Z,58.90
2018-01-25T05:14:07.826Z,57.93
2018-01-25T05:16:36.896Z,60.20
2018-01-25T05:19:04.587Z,58.60
2018-01-25T05:21:33.015Z,59.97
2018-01-25T05:24:00.873Z,61.33
2018-01-25T05:26:28.519Z,61.07
2018-01-25T05:28:56.164Z,60.43
2018-01-25T05:31:23.821Z,63.50
2018-01-25T05:33:51.542Z,57.80
2018-01-25T05:36:19.279Z,59.30
2018-01-25T05:38:46.912Z,62.87
2018-01-25T05:41:14.539Z,67.90
2018-01-25T05:43:42.198Z,58.53
2018-01-25T05:46:09.834Z,60.83
2018-01-25T05:48:37.476Z,62.13
2018-01-25T05:51:05.115Z,59.70
2018-01-25T05:53:32.768Z,60.43
2018-01-25T05:56:00.537Z,66.63
2018-01-25T05:58:28.220Z,65.00
2018-01-25T06:00:55.884Z,61.67
2018-01-25T06:03:23.515Z,66.13
2018-01-25T06:05:51.146Z,66.20
2018-01-25T06:08:19.575Z,63.47
2018-01-25T06:10:47.202Z,66.40
2018-01-25T06:13:15.625Z,68.10
2018-01-25T06:15:43.270Z,61.37
2018-01-25T06:18:10.918Z,68.00
2018-01-25T06:20:38.550Z,62.67
2018-01-25T06:23:06.982Z,59.40
2018-01-25T06:25:34.638Z,64.87
2018-01-25T06:28:02.380Z,68.60
2018-01-25T06:30:30.030Z,68.10
2018-01-25T06:32:57.694Z,67.03
2018-01-25T06:35:25.338Z,72.50
2018-01-25T06:37:53.731Z,71.00
2018-01-25T06:40:21.370Z,72.27
2018-01-25T06:42:49.766Z,74.60
2018-01-25T06:45:17.492Z,73.53
2018-01-25T06:47:45.210Z,67.80
2018-01-25T06:50:12.857Z,73.43
2018-01-25T06:52:40.518Z,73.50
2018-01-25T06:55:08.169Z,76.60
2018-01-25T06:57:35.817Z,71.87
2018-01-25T07:00:04.343Z,77.57
2018-01-25T07:02:31.988Z,79.53
2018-01-25T07:04:59.621Z,71.93
2018-01-25T07:07:28.026Z,68.73
2018-01-25T07:09:55.678Z,75.47
2018-01-25T07:12:23.315Z,76.53
2018-01-25T07:14:51.752Z,76.70
2018-01-25T07:17:19.382Z,71.97
2018-01-25T07:19:47.034Z,72.43
2018-01-25T07:22:14.698Z,74.30
2018-01-25T07:24:42.352Z,76.17
2018-01-25T07:27:10.146Z,77.93
2018-01-25T07:29:37.778Z,78.27
2018-01-25T07:32:05.576Z,82.77
2018-01-25T07:34:33.276Z,79.53
2018-01-25T07:37:01.679Z,75.97
2018-01-25T07:39:29.332Z,76.33
2018-01-25T07:41:57.748Z,72.10
2018-01-25T07:44:25.409Z,76.27
2018-01-25T07:46:53.373Z,80.60
2018-01-25T07:49:21.195Z,74.87
2018-01-25T07:51:49.103Z,72.50
2018-01-25T07:54:16.987Z,78.07
2018-01-25T07:56:44.859Z,81.67
2018-01-25T07:59:12.739Z,79.07
2018-01-25T08:01:41.326Z,78.57
2018-01-25T08:04:09.197Z,73.60
2018-01-25T08:06:37.826Z,76.30
2018-01-25T08:09:05.902Z,80.90
2018-01-25T08:11:33.792Z,80.53
2018-01-25T08:14:02.554Z,80.93
2018-01-25T08:16:36.152Z,70.20
2018-01-25T08:19:04.428Z,74.13
2018-01-25T08:21:32.601Z,73.40
2018-01-25T08:24:00.719Z,86.20
2018-01-25T08:26:28.849Z,69.77
2018-01-25T08:28:57.938Z,77.23
2018-01-25T08:31:26.883Z,69.67
2018-01-25T08:33:55.039Z,78.70
2018-01-25T08:36:22.749Z,73.83
2018-01-25T08:38:50.369Z,76.57
2018-01-25T08:41:18.775Z,74.80
2018-01-25T08:43:46.409Z,78.67
2018-01-25T08:46:14.810Z,83.10
2018-01-25T08:48:42.526Z,72.23
2018-01-25T08:51:10.166Z,80.23
2018-01-25T08:53:37.795Z,78.07
2018-01-25T08:56:05.438Z,80.10
2018-01-25T08:58:33.856Z,79.57
2018-01-25T09:01:01.481Z,74.77
2018-01-25T09:03:29.886Z,81.73
2018-01-25T09:05:57.545Z,75.73
2018-01-25T09:08:25.193Z,76.00
2018-01-25T09:10:52.845Z,81.80
2018-01-25T09:13:20.493Z,81.10
2018-01-25T09:15:48.913Z,83.53
2018-01-25T09:18:16.653Z,75.47
2018-01-25T09:20:44.290Z,72.37
2018-01-25T09:23:12.797Z,73.23
2018-01-25T09:25:40.457Z,79.90
2018-01-25T09:28:08.109Z,77.10
2018-01-25T09:30:35.822Z,79.13
2018-01-25T09:33:03.458Z,77.47
2018-01-25T09:35:31.105Z,81.67
2018-01-25T09:37:58.840Z,74.47
2018-01-25T09:40:27.230Z,83.83
2018-01-25T09:42:54.877Z,77.07
2018-01-25T09:45:23.308Z,77.00
2018-01-25T09:47:50.958Z,83.57
2018-01-25T09:50:18.634Z,82.93
2018-01-25T09:52:46.285Z,73.90
2018-01-25T09:55:13.940Z,83.90
2018-01-25T09:57:41.589Z,73.37
2018-01-25T10:00:09.277Z,77.53
2018-01-25T10:02:36.928Z,82.67
2018-01-25T10:05:04.579Z,78.00
2018-01-25T10:07:32.221Z,78.10
2018-01-25T10:10:00.025Z,77.57
2018-01-25T10:12:27.668Z,77.83
2018-01-25T10:14:55.329Z,72.50
2018-01-25T10:17:23.008Z,77.20
2018-01-25T10:19:50.656Z,78.97
2018-01-25T10:22:18.306Z,84.73
2018-01-25T10:24:45.961Z,79.33
2018-01-25T10:27:13.605Z,79.97
2018-01-25T10:29:41.234Z,83.60
2018-01-25T10:32:09.680Z,79.63
2018-01-25T10:34:37.315Z,74.63
2018-01-25T10:37:05.092Z,83.60
2018-01-25T10:39:32.765Z,77.33
2018-01-25T10:42:00.516Z,83.97
2018-01-25T10:44:28.145Z,80.47
2018-01-25T10:46:55.940Z,89.47
2018-01-25T10:49:23.574Z,85.70
2018-01-25T10:51:51.363Z,80.97
2018-01-25T10:54:19.021Z,86.33
2018-01-25T10:56:46.649Z,79.10
2018-01-25T10:59:14.313Z,78.33
2018-01-25T11:01:47.652Z,82.83
2018-01-25T11:04:15.292Z,81.33
2018-01-25T11:06:42.973Z,87.60
2018-01-25T11:09:10.628Z,89.40
2018-01-25T11:11:38.333Z,89.90
2018-01-25T11:14:06.143Z,91.13
2018-01-25T11:16:33.798Z,82.73
2018-01-25T11:19:01.513Z,96.53
2018-01-25T11:21:29.906Z,91.10
2018-01-25T11:23:57.535Z,86.63
2018-01-25T11:26:25.192Z,89.27
2018-01-25T11:28:52.926Z,91.80
2018-01-25T11:31:20.576Z,92.23
2018-01-25T11:33:48.233Z,93.13
2018-01-25T11:36:15.899Z,95.90
2018-01-25T11:38:43.525Z,83.23
2018-01-25T11:41:11.331Z,92.47
2018-01-25T11:43:38.973Z,88.67
2018-01-25T11:46:06.597Z,91.03
2018-01-25T11:48:35.132Z,98.43
2018-01-25T11:51:02.803Z,88.37
2018-01-25T11:53:30.574Z,87.77
2018-01-25T11:55:58.420Z,79.30
2018-01-25T11:58:26.097Z,86.20
2018-01-25T12:00:53.867Z,86.37
2018-01-25T12:03:21.552Z,87.80
2018-01-25T12:05:49.965Z,83.33
2018-01-25T12:08:17.673Z,92.03
2018-01-25T12:10:45.408Z,88.53
2018-01-25T12:13:13.061Z,93.00
2018-01-25T12:15:40.726Z,84.67
2018-01-25T12:18:08.357Z,97.43
2018-01-25T12:20:36.089Z,89.13
2018-01-25T12:23:04.502Z,89.23
2018-01-25T12:25:32.202Z,81.57
2018-01-25T12:27:59.861Z,88.33
2018-01-25T12:30:27.714Z,87.50
2018-01-25T12:32:55.381Z,91.43
2018-01-25T12:35:23.040Z,89.93
2018-01-25T12:37:50.712Z,83.07
2018-01-25T12:40:18.446Z,87.07
2018-01-25T12:42:46.088Z,92.23
2018-01-25T12:45:14.345Z,87.13
2018-01-25T12:47:42.872Z,126.00
2018-01-25T12:50:11.333Z,90.40
2018-01-25T12:52:38.980Z,94.83
2018-01-25T12:55:06.621Z,92.10
2018-01-25T12:57:35.029Z,101.03
2018-01-25T13:00:02.815Z,112.27
2018-01-25T13:02:30.574Z,101.77
2018-01-25T13:04:58.201Z,90.17
2018-01-25T13:07:25.929Z,96.43
2018-01-25T13:09:53.562Z,98.70
2018-01-25T13:12:21.198Z,93.07
2018-01-25T13:14:48.984Z,105.83
2018-01-25T13:17:16.849Z,97.33
2018-01-25T13:19:44.633Z,99.40
2018-01-25T13:22:12.477Z,101.53
2018-01-25T13:24:40.261Z,98.40
2018-01-25T13:27:07.932Z,98.57
2018-01-25T13:29:35.589Z,97.87
2018-01-25T13:32:03.527Z,98.57
2018-01-25T13:34:31.288Z,92.33
2018-01-25T13:36:58.969Z,95.90
2018-01-25T13:39:26.814Z,103.53
2018-01-25T13:41:54.576Z,99.30
2018-01-25T13:44:22.338Z,95.07
2018-01-25T13:46:50.203Z,103.57
2018-01-25T13:49:17.939Z,102.23
2018-01-25T13:51:45.733Z,105.90
2018-01-25T13:54:13.523Z,98.87
2018-01-25T13:56:41.358Z,104.83
2018-01-25T13:59:09.226Z,103.13
2018-01-25T14:01:37.010Z,110.30
2018-01-25T14:04:04.814Z,111.80
2018-01-25T14:06:32.551Z,109.67
2018-01-25T14:09:01.117Z,110.83
2018-01-25T14:11:28.885Z,104.37
2018-01-25T14:13:56.721Z,102.57
2018-01-25T14:16:24.486Z,111.27
2018-01-25T14:18:52.374Z,102.50
2018-01-25T14:21:20.133Z,98.80
2018-01-25T14:23:47.899Z,105.00
2018-01-25T14:26:15.740Z,107.73
2018-01-25T14:28:43.606Z,102.23
2018-01-25T14:31:11.408Z,101.27
2018-01-25T14:33:40.055Z,96.37
2018-01-25T14:36:07.845Z,99.30
2018-01-25T14:38:35.603Z,101.20
2018-01-25T14:41:03.329Z,92.23
2018-01-25T14:43:32.028Z,99.37
2018-01-25T14:45:59.892Z,95.30
2018-01-25T14:48:27.758Z,104.17
2018-01-25T14:50:55.623Z,95.13
2018-01-25T14:53:23.335Z,94.63
2018-01-25T14:55:51.786Z,93.43
2018-01-25T14:58:19.630Z,93.23
2018-01-25T15:00:47.492Z,93.83
2018-01-25T15:03:15.359Z,101.90
2018-01-25T15:05:43.225Z,94.63
2018-01-25T15:08:10.917Z,87.67
2018-01-25T15:10:38.751Z,95.73
2018-01-25T15:13:06.449Z,91.37
2018-01-25T15:15:34.278Z,84.03
2018-01-25T15:18:02.142Z,82.97
2018-01-25T15:20:29.863Z,90.27
2018-01-25T15:22:58.999Z,92.83
2018-01-25T15:25:32.349Z,89.87
2018-01-25T15:28:00.293Z,91.07
2018-01-25T15:30:27.989Z,93.00
2018-01-25T15:32:55.786Z,95.37
2018-01-25T15:35:24.571Z,87.13
2018-01-25T15:37:52.437Z,90.40
2018-01-25T15:40:20.405Z,89.23
2018-01-25T15:42:48.270Z,89.77
2018-01-25T15:45:16.066Z,94.13
2018-01-25T15:47:43.898Z,111.27
2018-01-25T15:50:11.694Z,91.00
2018-01-25T15:52:39.453Z,101.03
2018-01-25T15:55:07.288Z,98.50
2018-01-25T15:57:35.177Z,95.93
2018-01-25T16:00:03.020Z,93.63
2018-01-25T16:02:30.887Z,92.00
2018-01-25T16:04:58.647Z,95.70
2018-01-25T16:07:26.369Z,94.60
2018-01-25T16:09:54.172Z,95.87
2018-01-25T16:12:22.043Z,95.73
2018-01-25T16:14:49.902Z,91.33
2018-01-25T16:17:17.607Z,87.93
2018-01-25T16:19:46.252Z,99.13
2018-01-25T16:22:14.049Z,93.37
2018-01-25T16:24:41.741Z,94.87
2018-01-25T16:27:09.454Z,99.13
2018-01-25T16:29:37.299Z,92.90
2018-01-25T16:32:05.889Z,89.87
2018-01-25T16:34:33.646Z,98.63
2018-01-25T16:37:01.409Z,97.07
2018-01-25T16:39:29.375Z,106.27
2018-01-25T16:41:57.242Z,100.20
2018-01-25T16:44:25.032Z,90.83
2018-01-25T16:46:52.870Z,102.17
2018-01-25T16:49:20.656Z,101.37
2018-01-25T16:51:48.496Z,98.27
2018-01-25T16:54:16.290Z,99.73
2018-01-25T16:56:43.995Z,93.00
2018-01-25T16:59:12.503Z,100.13
2018-01-25T17:01:40.179Z,104.90
2018-01-25T17:04:07.823Z,94.20
2018-01-25T17:06:35.587Z,100.73
2018-01-25T17:09:03.384Z,102.40
2018-01-25T17:11:32.661Z,99.63
2018-01-25T17:14:00.516Z,98.60
2018-01-25T17:16:28.483Z,103.13
2018-01-25T17:18:57.099Z,97.40
2018-01-25T17:21:24.935Z,89.60
2018-01-25T17:23:52.793Z,91.70
2018-01-25T17:26:20.659Z,90.87
2018-01-25T17:28:48.526Z,96.10
2018-01-25T17:31:16.389Z,95.50
2018-01-25T17:33:44.256Z,97.47
2018-01-25T17:36:12.062Z,94.33
2018-01-25T17:38:40.704Z,92.80
2018-01-25T17:41:08.414Z,96.53
2018-01-25T17:43:37.050Z,96.43
2018-01-25T17:46:04.914Z,98.87
2018-01-25T17:48:32.780Z,92.10
2018-01-25T17:51:00.579Z,105.07
2018-01-25T17:53:28.327Z,102.37
2018-01-25T17:55:56.171Z,98.77
2018-01-25T17:58:24.036Z,97.90
2018-01-25T18:00:51.901Z,91.03
2018-01-25T18:03:19.765Z,97.37
2018-01-25T18:05:47.630Z,99.10
2018-01-25T18:08:15.430Z,99.47
2018-01-25T18:10:44.078Z,100.47
2018-01-25T18:13:11.887Z,106.80
2018-01-25T18:15:40.530Z,106.03
2018-01-25T18:18:08.389Z,100.40
2018-01-25T18:20:36.257Z,95.97
2018-01-25T18:23:04.052Z,101.40
2018-01-25T18:25:31.781Z,92.00
2018-01-25T18:27:59.545Z,101.80
2018-01-25T18:30:27.412Z,110.27
2018-01-25T18:32:55.891Z,101.30
2018-01-25T18:35:23.677Z,145.37
2018-01-25T18:37:51.416Z,119.03
2018-01-25T18:40:19.284Z,110.00
2018-01-25T18:42:47.151Z,101.00
2018-01-25T18:45:14.910Z,92.97
2018-01-25T18:47:42.775Z,92.50
2018-01-25T18:50:10.567Z,90.57
2018-01-25T18:52:38.300Z,99.63
2018-01-25T18:55:05.997Z,98.70
2018-01-25T18:57:33.679Z,100.97
2018-01-25T19:00:02.238Z,105.87
2018-01-25T19:02:29.987Z,103.57
2018-01-25T19:04:57.831Z,101.37
2018-01-25T19:07:26.555Z,97.93
2018-01-25T19:09:55.202Z,92.70
2018-01-25T19:12:22.909Z,85.60
2018-01-25T19:14:51.399Z,91.97
2018-01-25T19:17:19.207Z,95.60
2018-01-25T19:19:46.929Z,90.03
2018-01-25T19:22:14.734Z,89.60
2018-01-25T19:24:42.493Z,102.67
2018-01-25T19:27:10.194Z,115.73
2018-01-25T19:29:37.917Z,118.47
2018-01-25T19:32:05.640Z,112.57
2018-01-25T19:34:33.360Z,105.47
2018-01-25T19:37:01.079Z,105.23
2018-01-25T19:39:29.177Z,98.63
2018-01-25T19:41:56.916Z,105.33
2018-01-25T19:44:24.613Z,101.37
2018-01-25T19:46:52.350Z,103.07
2018-01-25T19:49:20.079Z,105.73
2018-01-25T19:51:48.579Z,102.77
2018-01-25T19:54:16.282Z,112.30
2018-01-25T19:56:46.494Z,105.47
2018-01-25T19:59:15.918Z,104.63
2018-01-25T20:01:45.404Z,102.30
2018-01-25T20:04:14.846Z,105.60
2018-01-25T20:06:44.784Z,107.27
2018-01-25T20:09:13.954Z,108.17
2018-01-25T20:11:44.693Z,118.90
2018-01-25T20:14:15.140Z,105.23
2018-01-25T20:16:42.854Z,102.33
2018-01-25T20:19:10.564Z,96.20
2018-01-25T20:21:38.248Z,108.27
2018-01-25T20:24:05.974Z,106.47
2018-01-25T20:26:34.464Z,110.13
2018-01-25T20:29:02.214Z,107.73
2018-01-25T20:31:29.963Z,101.80
2018-01-25T20:33:58.458Z,100.33
2018-01-25T20:36:26.188Z,104.70
2018-01-25T20:38:53.901Z,107.83
2018-01-25T20:41:21.640Z,109.40
2018-01-25T20:43:49.372Z,102.10
2018-01-25T20:46:17.078Z,106.63
2018-01-25T20:48:44.835Z,105.73
2018-01-25T20:51:12.589Z,102.37
2018-01-25T20:53:40.360Z,107.80
2018-01-25T20:56:08.110Z,105.00
2018-01-25T20:58:36.630Z,109.57
2018-01-25T21:01:05.325Z,98.67
2018-01-25T21:03:33.092Z,102.47
2018-01-25T21:06:00.830Z,96.83
2018-01-25T21:08:28.608Z,99.47
2018-01-25T21:10:56.348Z,101.10
2018-01-25T21:13:24.173Z,101.33
2018-01-25T21:15:51.903Z,97.43
2018-01-25T21:18:19.684Z,95.30
2018-01-25T21:20:47.626Z,86.20
2018-01-25T21:23:15.340Z,98.90
2018-01-25T21:25:43.928Z,93.13
2018-01-25T21:28:12.418Z,86.07
2018-01-25T21:30:40.130Z,96.07
2018-01-25T21:33:07.887Z,92.47
2018-01-25T21:35:36.513Z,93.80
2018-01-25T21:38:05.002Z,92.93
2018-01-25T21:40:32.718Z,98.77
2018-01-25T21:43:00.400Z,97.97
2018-01-25T21:45:28.094Z,95.00
2018-01-25T21:47:55.747Z,93.30
2018-01-25T21:50:24.173Z,91.30
2018-01-25T21:52:51.862Z,92.57
2018-01-25T21:55:19.526Z,85.83
2018-01-25T21:57:47.359Z,102.90
2018-01-25T22:00:15.149Z,86.07
2018-01-25T22:02:42.897Z,93.17
2018-01-25T22:05:10.654Z,91.83
2018-01-25T22:07:38.334Z,98.10
2018-01-25T22:10:05.995Z,92.40
2018-01-25T22:12:33.729Z,96.73
2018-01-25T22:15:01.455Z,90.40
2018-01-25T22:17:29.167Z,100.03
2018-01-25T22:19:56.825Z,91.70
2018-01-25T22:22:25.274Z,91.50
2018-01-25T22:24:52.946Z,100.73
2018-01-25T22:27:20.614Z,94.77
2018-01-25T22:29:48.269Z,93.30
2018-01-25T22:32:15.928Z,100.00
2018-01-25T22:34:43.664Z,87.93
2018-01-25T22:37:11.423Z,88.40
2018-01-25T22:39:39.217Z,90.70
2018-01-25T22:42:06.919Z,97.57
2018-01-25T22:44:34.591Z,91.67
2018-01-25T22:47:03.015Z,101.63
2018-01-25T22:49:30.681Z,97.10
2018-01-25T22:51:58.346Z,101.37
2018-01-25T22:54:26.023Z,93.33
2018-01-25T22:56:53.761Z,95.37
2018-01-25T22:59:21.429Z,85.23
2018-01-25T23:01:49.099Z,88.30
2018-01-25T23:04:16.768Z,89.97
2018-01-25T23:06:44.427Z,88.77
2018-01-25T23:09:12.165Z,100.10
2018-01-25T23:11:39.830Z,99.80
2018-01-25T23:14:07.504Z,90.70
2018-01-25T23:16:35.152Z,94.03
2018-01-25T23:19:02.815Z,90.40
2018-01-25T23:21:30.513Z,97.20
2018-01-25T23:23:58.971Z,89.80
2018-01-25T23:26:27.383Z,96.13
2018-01-25T23:28:55.819Z,98.90
2018-01-25T23:31:23.488Z,97.60
2018-01-25T23:33:51.167Z,100.93
2018-01-25T23:36:18.833Z,94.90
2018-01-25T23:38:46.715Z,100.60
2018-01-25T23:41:14.654Z,98.13
2018-01-25T23:43:43.290Z,93.07
2018-01-25T23:46:11.198Z,94.27
2018-01-25T23:48:39.856Z,103.03
2018-01-25T23:51:07.724Z,96.63
2018-01-25T23:53:36.405Z,97.57
2018-01-25T23:56:04.290Z,104.40
2018-01-25T23:58:32.172Z,93.03
